DW7854 Weather Reports


Display with metric or nautical units.
time (UTC)temp
F
wind
direction
speed
MPH
gust
MPH
rain 1hr
in
rain 24hr
in
rain mn
in
humidity
%
barometer
mb
20190218040239 38 0 0.0 0.0 0.00 0.02 0.02 86 1018.3
20190218040031 38 340 0.0 0.0 0.00 0.02 0.02 85 1019.2
20190218035339 38 0 0.0 0.0 0.00 0.02 0.02 85 1018.2
20190218034524 38 340 0.0 1.0 0.00 0.02 0.02 85 1019.1
20190218034439 39 339 0.0 1.0 0.00 0.02 0.02 85 1018.0
20190218033539 39 0 0.0 0.0 0.00 0.02 0.02 84 1018.1
20190218032638 39 339 0.0 1.0 0.00 0.02 0.02 84 1017.9
20190218031738 39 0 0.0 0.0 0.00 0.02 0.02 83 1017.8
20190218030838 40 0 0.0 0.0 0.00 0.02 0.02 82 1017.5
20190218030048 39 340 0.0 0.0 0.00 0.02 0.02 82 1018.3
20190218025938 40 0 0.0 0.0 0.00 0.02 0.02 82 1017.3
20190218025038 40 0 0.0 0.0 0.00 0.02 0.02 80 1017.3
20190218024138 40 0 0.0 0.0 0.00 0.02 0.02 79 1017.1
20190218023238 40 0 0.0 0.0 0.00 0.02 0.02 78 1016.9
20190218022338 41 0 0.0 0.0 0.00 0.02 0.02 78 1016.9
20190218021534 41 340 0.0 0.0 0.00 0.03 0.02 77 1017.7
20190218021438 41 0 0.0 0.0 0.00 0.03 0.02 77 1016.7
20190218020539 41 339 0.0 1.0 0.00 0.03 0.02 76 1016.4
20190218020022 41 340 0.0 2.0 0.00 0.03 0.02 76 1017.3
20190218015639 41 339 0.0 2.0 0.00 0.03 0.02 75 1016.1
20190218014739 41 337 0.0 2.0 0.00 0.03 0.02 75 1015.7
20190218014523 41 336 0.0 2.0 0.00 0.03 0.02 75 1016.7
20190218013838 41 327 1.0 4.0 0.00 0.03 0.02 74 1015.8
20190218013019 41 342 0.0 4.0 0.00 0.03 0.02 75 1016.5
20190218012938 41 324 1.0 4.0 0.00 0.03 0.02 75 1015.6
20190218012039 41 338 1.0 4.0 0.00 0.03 0.02 76 1015.3
20190218011536 40 348 0.0 3.0 0.00 0.03 0.02 77 1016.3
20190218011138 41 329 0.0 3.0 0.00 0.03 0.02 77 1015.1
20190218010238 41 342 0.0 1.0 0.00 0.03 0.02 78 1015.0
20190218005338 41 0 0.0 0.0 0.00 0.03 0.02 78 1014.8
20190218004438 42 329 0.0 1.0 0.00 0.03 0.02 76 1014.8
20190218003538 43 329 0.0 1.0 0.00 0.03 0.02 74 1014.6
20190218003054 43 330 0.0 1.0 0.00 0.03 0.02 73 1015.5
20190218002638 44 329 0.0 1.0 0.00 0.03 0.02 72 1014.5
20190218001739 44 329 0.0 1.0 0.00 0.03 0.02 71 1014.4
20190218000838 45 329 0.0 1.0 0.00 0.03 0.02 68 1014.2
20190218000102 45 330 0.0 2.0 0.00 0.03 0.02 66 1015.0
20190217235938 45 330 0.0 2.0 0.00 0.03 0.02 66 1014.1
20190217235038 46 324 2.0 6.0 0.00 0.03 0.02 65 1013.9
20190217234138 46 316 2.0 7.0 0.00 0.03 0.02 64 1013.8
20190217233238 46 329 2.0 5.0 0.00 0.03 0.02 64 1013.6
20190217232338 47 335 2.0 5.0 0.00 0.03 0.02 63 1013.5
20190217231522 47 341 2.0 5.0 0.00 0.03 0.02 63 1014.4
20190217231438 47 322 2.0 5.0 0.00 0.03 0.02 63 1013.4
20190217230538 48 318 3.0 7.0 0.00 0.03 0.02 61 1013.2
20190217225638 48 308 5.0 10.0 0.00 0.03 0.02 60 1013.1
20190217224738 49 311 4.0 9.0 0.00 0.03 0.02 59 1013.1
20190217223838 50 315 4.0 11.0 0.00 0.03 0.02 57 1013.0
20190217222938 50 321 4.0 10.0 0.00 0.03 0.02 58 1012.8
20190217222038 50 315 6.0 13.0 0.00 0.03 0.02 58 1012.7
20190217221603 50 343 5.0 14.0 0.00 0.03 0.02 58 1013.6
20190217221138 51 311 6.0 14.0 0.00 0.03 0.02 57 1012.7
20190217220238 51 309 5.0 9.0 0.00 0.03 0.02 60 1012.5
20190217220041 50 5 2.0 9.0 0.00 0.03 0.02 61 1013.4
20190217215338 50 305 5.0 11.0 0.00 0.03 0.02 61 1012.4
20190217214541 50 333 4.0 13.0 0.00 0.03 0.02 60 1013.2
20190217214438 50 321 5.0 13.0 0.00 0.03 0.02 60 1012.3
20190217213538 50 310 4.0 10.0 0.00 0.03 0.02 65 1012.2
20190217213016 50 321 3.0 10.0 0.00 0.03 0.02 65 1013.1
20190217212638 50 304 3.0 9.0 0.00 0.03 0.02 66 1012.2
20190217211738 49 323 4.0 9.0 0.00 0.03 0.02 67 1012.2
20190217210838 49 313 4.0 11.0 0.00 0.03 0.02 65 1012.3
20190217210027 49 303 3.0 7.0 0.00 0.03 0.02 66 1013.2
20190217205938 50 307 3.0 7.0 0.00 0.03 0.02 66 1012.3
20190217205038 50 311 4.0 8.0 0.00 0.03 0.02 67 1012.3
20190217204525 49 265 3.0 10.0 0.00 0.03 0.02 66 1013.2
20190217204138 49 316 4.0 10.0 0.00 0.03 0.02 67 1012.2
20190217203238 49 327 4.0 8.0 0.00 0.03 0.02 68 1012.2
20190217202338 48 318 4.0 8.0 0.00 0.03 0.02 68 1012.2
20190217201524 48 314 2.0 9.0 0.00 0.03 0.02 70 1013.2
20190217201438 48 306 4.0 10.0 0.00 0.03 0.02 71 1012.2
20190217200538 48 319 3.0 10.0 0.00 0.03 0.02 73 1012.4
20190217195638 47 320 5.0 10.0 0.00 0.03 0.02 72 1012.4
20190217194738 46 319 3.0 5.0 0.00 0.03 0.02 75 1012.5
20190217194603 46 298 3.0 6.0 0.00 0.03 0.02 77 1013.4
20190217193839 45 305 4.0 9.0 0.00 0.03 0.02 77 1012.5
20190217193028 45 304 5.0 9.0 0.00 0.03 0.02 78 1013.4
20190217192938 45 320 4.0 9.0 0.00 0.03 0.02 77 1012.5
20190217192038 45 315 3.0 8.0 0.00 0.03 0.02 79 1012.6
20190217191140 45 318 3.0 8.0 0.00 0.03 0.02 80 1012.7
20190217190238 45 315 2.0 6.0 0.00 0.03 0.02 81 1012.7
20190217185338 44 310 3.0 8.0 0.00 0.03 0.02 84 1012.6
20190217184530 42 332 3.0 8.0 0.00 0.03 0.02 84 1013.6
20190217184438 43 284 3.0 8.0 0.00 0.03 0.02 83 1012.7
20190217183538 42 308 3.0 7.0 0.00 0.03 0.02 84 1012.6
20190217183036 42 303 3.0 7.0 0.00 0.03 0.02 84 1013.7
20190217182638 42 311 4.0 8.0 0.00 0.03 0.02 85 1012.8
20190217181738 42 308 3.0 8.0 0.00 0.03 0.02 85 1012.7
20190217181522 41 298 2.0 8.0 0.00 0.03 0.02 85 1013.8
20190217180838 41 318 3.0 8.0 0.00 0.03 0.02 86 1012.8
20190217180030 41 317 4.0 9.0 0.00 0.03 0.02 86 1013.7
20190217175938 41 310 4.0 9.0 0.00 0.03 0.02 86 1012.7
20190217175038 41 319 3.0 7.0 0.00 0.03 0.02 87 1012.8
20190217174523 41 313 3.0 8.0 0.00 0.03 0.02 87 1013.6
20190217174138 41 308 4.0 9.0 0.00 0.03 0.02 87 1012.5
20190217173238 42 322 5.0 11.0 0.00 0.03 0.02 89 1012.3
20190217172338 42 321 4.0 9.0 0.00 0.03 0.02 90 1012.2
20190217171523 41 328 5.0 9.0 0.00 0.03 0.02 92 1013.2
20190217171438 42 313 5.0 9.0 0.00 0.03 0.02 92 1012.3
20190217170538 42 312 1.0 6.0 0.00 0.03 0.02 95 1012.0
20190217165638 42 327 3.0 10.0 0.00 0.03 0.02 96 1012.0
20190217164738 42 319 3.0 9.0 0.00 0.03 0.02 97 1012.0
20190217164524 41 324 1.0 9.0 0.00 0.03 0.02 97 1012.9
20190217163838 41 318 4.0 9.0 0.00 0.03 0.02 97 1011.9
20190217163036 41 340 3.0 9.0 0.00 0.03 0.02 98 1012.8
20190217162938 41 317 5.0 10.0 0.00 0.03 0.02 98 1011.8
20190217162038 41 313 5.0 10.0 0.00 0.03 0.02 98 1011.5
20190217161544 41 345 4.0 11.0 0.00 0.03 0.02 98 1012.3
20190217161138 41 308 3.0 11.0 0.00 0.03 0.02 98 1011.4
20190217160238 41 302 2.0 7.0 0.00 0.03 0.02 98 1011.0
20190217155338 41 304 3.0 8.0 0.00 0.03 0.02 98 1011.1
20190217154438 41 301 2.0 6.0 0.00 0.03 0.02 98 1010.9
20190217153538 41 309 1.0 5.0 0.00 0.03 0.02 98 1010.6
20190217152638 41 300 1.0 5.0 0.00 0.03 0.02 98 1010.4
20190217151738 41 304 2.0 9.0 0.00 0.03 0.02 98 1010.3
20190217151552 40 339 1.0 9.0 0.00 0.03 0.02 98 1011.2
20190217150838 41 309 2.0 8.0 0.00 0.03 0.02 98 1010.2
20190217150043 40 323 0.0 6.0 0.00 0.03 0.02 98 1011.1
20190217145938 40 310 2.0 6.0 0.00 0.03 0.02 98 1010.1
20190217145038 40 313 1.0 8.0 0.00 0.03 0.02 98 1010.0
20190217144524 40 327 0.0 5.0 0.00 0.03 0.02 98 1011.0
20190217144138 40 303 1.0 6.0 0.00 0.03 0.02 98 1009.9
20190217143238 40 305 2.0 7.0 0.00 0.03 0.02 98 1009.7
20190217142338 40 306 1.0 6.0 0.00 0.03 0.02 98 1009.6
20190217141532 39 313 0.0 6.0 0.00 0.03 0.02 98 1010.6
20190217141438 40 312 1.0 6.0 0.00 0.03 0.02 98 1009.7
20190217140538 39 317 1.0 5.0 0.00 0.03 0.02 98 1009.4
20190217140040 39 326 0.0 4.0 0.00 0.03 0.02 98 1010.3
20190217135638 39 327 0.0 3.0 0.00 0.03 0.02 98 1009.3
20190217134738 39 332 0.0 1.0 0.01 0.03 0.02 98 1009.3
20190217134520 39 332 0.0 1.0 0.01 0.03 0.02 98 1010.1
20190217133838 39 333 0.0 3.0 0.01 0.03 0.02 98 1009.3
20190217132938 39 337 0.0 2.0 0.01 0.03 0.02 98 1009.4
20190217132038 39 339 0.0 2.0 0.01 0.03 0.02 98 1009.3
20190217131138 39 339 0.0 3.0 0.01 0.03 0.02 98 1009.2
20190217130238 39 339 0.0 2.0 0.01 0.03 0.02 98 1009.1
20190217130025 38 340 0.0 2.0 0.01 0.03 0.02 98 1010.0
20190217125338 39 310 1.0 4.0 0.00 0.02 0.01 98 1008.9
20190217124523 38 306 0.0 2.0 0.00 0.02 0.01 98 1009.4
20190217124438 39 306 1.0 4.0 0.00 0.02 0.01 98 1008.4
20190217123538 39 308 1.0 5.0 0.00 0.02 0.01 98 1008.1
20190217122638 39 348 0.0 2.0 0.00 0.02 0.01 98 1008.5
20190217121738 39 348 0.0 2.0 0.00 0.02 0.01 98 1008.4
20190217121525 38 349 0.0 2.0 0.00 0.02 0.01 98 1009.4
20190217120838 39 0 0.0 0.0 0.00 0.02 0.01 98 1008.4
20190217120035 38 349 0.0 0.0 0.00 0.02 0.01 98 1009.1
20190217115938 39 0 0.0 0.0 0.00 0.02 0.01 98 1008.2
20190217115038 38 0 0.0 0.0 0.00 0.02 0.01 98 1008.1
20190217114516 38 349 0.0 0.0 0.00 0.02 0.01 98 1008.8
20190217114138 38 0 0.0 0.0 0.00 0.02 0.01 98 1007.7
20190217113238 38 0 0.0 0.0 0.00 0.02 0.01 98 1007.5
20190217113019 38 349 0.0 0.0 0.00 0.02 0.01 98 1008.5
20190217112338 38 0 0.0 0.0 0.00 0.02 0.01 98 1007.6
20190217111530 38 349 0.0 2.0 0.00 0.02 0.01 98 1008.4
20190217111438 38 348 0.0 2.0 0.00 0.02 0.01 98 1007.4
20190217110538 38 348 0.0 2.0 0.00 0.02 0.01 98 1007.3
20190217105638 38 348 0.0 2.0 0.00 0.02 0.01 98 1007.0
20190217104738 38 349 0.0 4.0 0.00 0.02 0.01 98 1006.8
20190217104518 38 349 0.0 4.0 0.00 0.02 0.01 98 1007.7
20190217103838 38 340 0.0 3.0 0.00 0.02 0.01 98 1006.4
20190217103028 38 340 0.0 4.0 0.00 0.02 0.01 98 1007.2
20190217102938 38 342 0.0 4.0 0.00 0.02 0.01 98 1006.2
20190217102038 38 355 0.0 3.0 0.00 0.02 0.01 98 1005.9
20190217101536 38 355 0.0 3.0 0.00 0.02 0.01 98 1006.7
20190217101138 38 10 0.0 2.0 0.00 0.02 0.01 98 1005.7
20190217100238 38 53 0.0 3.0 0.00 0.02 0.01 98 1005.7
20190217100028 38 25 0.0 3.0 0.00 0.02 0.01 97 1006.5
20190217095338 38 72 0.0 2.0 0.00 0.02 0.01 97 1005.6
20190217094538 38 70 0.0 5.0 0.00 0.02 0.01 97 1006.3
20190217094438 38 73 1.0 3.0 0.00 0.02 0.01 97 1005.3
20190217093538 38 24 0.0 1.0 0.00 0.02 0.01 97 1005.4
20190217093032 38 24 0.0 4.0 0.00 0.02 0.01 97 1006.5
20190217092638 38 50 0.0 4.0 0.00 0.02 0.01 97 1005.4
20190217091738 38 5 1.0 4.0 0.00 0.02 0.01 98 1005.5
20190217091518 38 40 0.0 4.0 0.00 0.02 0.01 98 1006.5
20190217090838 38 62 0.0 2.0 0.00 0.02 0.01 98 1005.6
20190217085938 38 5 1.0 5.0 0.00 0.02 0.01 98 1005.6
20190217085038 38 7 1.0 5.0 0.00 0.02 0.01 98 1006.1
20190217084138 38 357 2.0 8.0 0.00 0.02 0.01 98 1006.1
20190217083238 38 359 1.0 4.0 0.00 0.02 0.01 98 1005.9
20190217083039 38 348 0.0 4.0 0.00 0.02 0.01 98 1006.9
20190217082338 38 347 2.0 6.0 0.00 0.02 0.01 98 1006.2
20190217081439 38 353 1.0 5.0 0.00 0.02 0.01 98 1006.2
20190217080538 38 0 0.0 0.0 0.00 0.02 0.01 98 1005.9
20190217075638 38 34 0.0 1.0 0.00 0.02 0.01 98 1006.1
20190217074738 38 0 0.0 0.0 0.00 0.02 0.01 97 1006.3
20190217074525 38 34 0.0 0.0 0.00 0.02 0.01 97 1007.3
20190217073838 38 49 0.0 2.0 0.00 0.02 0.01 97 1006.3
20190217072938 38 49 0.0 1.0 0.00 0.02 0.01 97 1005.9
20190217072038 38 49 0.0 1.0 0.00 0.02 0.01 97 1005.7
20190217071529 38 49 0.0 1.0 0.00 0.02 0.01 97 1006.7
20190217071138 38 47 0.0 1.0 0.00 0.02 0.01 97 1005.7
20190217070238 38 45 0.0 2.0 0.01 0.02 0.01 97 1005.5
20190217070023 38 46 0.0 2.0 0.01 0.02 0.01 97 1006.4
20190217065338 38 42 0.0 2.0 0.01 0.02 0.01 97 1005.9
20190217064542 38 41 0.0 2.0 0.01 0.02 0.01 97 1006.8
20190217064438 38 42 0.0 2.0 0.01 0.02 0.01 97 1005.9
20190217063538 38 42 0.0 2.0 0.01 0.02 0.01 97 1005.6
20190217062637 38 37 0.0 1.0 0.01 0.02 0.01 97 1005.8
20190217061738 38 41 0.0 3.0 0.01 0.02 0.01 97 1005.9
20190217061530 38 37 0.0 3.0 0.01 0.02 0.01 97 1006.8
20190217060838 38 96 1.0 3.0 0.01 0.02 0.01 97 1005.7
20190217055938 38 67 0.0 5.0 0.00 0.01 0.01 97 1005.4
20190217055038 38 95 2.0 6.0 0.00 0.01 0.01 97 1005.2
20190217054537 38 80 2.0 7.0 0.00 0.01 0.01 97 1006.2
20190217054138 38 98 4.0 8.0 0.00 0.01 0.01 97 1005.2
20190217053238 38 96 3.0 13.0 0.00 0.01 0.01 97 1005.3
20190217052337 38 94 5.0 13.0 0.00 0.01 0.01 97 1005.0
20190217051524 37 95 5.0 13.0 0.00 0.01 0.01 97 1006.1
20190217051437 38 97 6.0 13.0 0.00 0.01 0.01 97 1005.1
20190217050538 38 96 5.0 8.0 0.00 0.01 0.01 97 1005.5
20190217050024 37 92 4.0 9.0 0.00 0.01 0.01 97 1006.6
20190217045638 38 97 3.0 8.0 0.00 0.01 0.01 97 1005.9
20190217044738 38 94 3.0 8.0 0.00 0.01 0.01 97 1006.2
20190217043837 38 95 2.0 6.0 0.00 0.01 0.01 97 1006.6
20190217042937 38 101 3.0 8.0 0.00 0.01 0.01 97 1006.5
20190217042037 38 96 2.0 6.0 0.00 0.01 0.01 97 1006.5
20190217041610 38 98 2.0 7.0 0.00 0.01 0.01 97 1007.6
20190217041137 38 97 3.0 9.0 0.00 0.01 0.01 97 1006.6